createdAt,value
2023-05-21T00:00:25.701Z,12.79
2023-05-21T00:02:52.115Z,12.82
2023-05-21T00:05:18.601Z,12.76
2023-05-21T00:07:44.968Z,12.74
2023-05-21T00:10:11.368Z,12.78
2023-05-21T00:12:37.752Z,12.78
2023-05-21T00:15:04.132Z,12.76
2023-05-21T00:17:30.545Z,12.86
2023-05-21T00:19:57.007Z,12.85
2023-05-21T00:22:23.397Z,12.93
2023-05-21T00:24:49.748Z,12.97
2023-05-21T00:27:16.128Z,12.94
2023-05-21T00:29:44.178Z,12.84
2023-05-21T00:32:10.872Z,12.88
2023-05-21T00:34:37.357Z,12.84
2023-05-21T00:37:03.725Z,12.83
2023-05-21T00:39:30.080Z,12.83
2023-05-21T00:41:56.447Z,12.86
2023-05-21T00:44:22.817Z,12.92
2023-05-21T00:46:49.210Z,12.94
2023-05-21T00:49:15.691Z,12.89
2023-05-21T00:51:42.084Z,12.92
2023-05-21T00:54:08.475Z,12.76
2023-05-21T00:56:34.878Z,12.74
2023-05-21T00:59:01.235Z,12.75
2023-05-21T01:01:27.651Z,12.71
2023-05-21T01:03:54.121Z,12.67
2023-05-21T01:06:20.490Z,12.75
2023-05-21T01:08:46.856Z,12.81
2023-05-21T01:11:13.238Z,12.74
2023-05-21T01:13:39.617Z,12.67
2023-05-21T01:16:05.978Z,12.67
2023-05-21T01:18:32.388Z,12.61
2023-05-21T01:20:58.789Z,12.56
2023-05-21T01:23:25.218Z,12.53
2023-05-21T01:25:51.605Z,12.47
2023-05-21T01:28:17.965Z,12.42
2023-05-21T01:30:44.346Z,12.39
2023-05-21T01:33:10.869Z,12.45
2023-05-21T01:35:37.510Z,12.53
2023-05-21T01:38:04.069Z,12.56
2023-05-21T01:40:30.429Z,12.55
2023-05-21T01:42:56.794Z,12.57
2023-05-21T01:45:23.150Z,12.47
2023-05-21T01:47:49.552Z,12.42
2023-05-21T01:50:16.048Z,12.39
2023-05-21T01:52:42.469Z,12.39
2023-05-21T01:55:08.827Z,12.41
2023-05-21T01:57:35.213Z,12.38
2023-05-21T02:00:01.648Z,12.37
2023-05-21T02:02:28.083Z,12.40
2023-05-21T02:04:54.454Z,12.35
2023-05-21T02:07:20.810Z,12.34
2023-05-21T02:09:47.178Z,12.32
2023-05-21T02:12:13.554Z,12.39
2023-05-21T02:14:39.932Z,12.35
2023-05-21T02:17:06.338Z,12.32
2023-05-21T02:19:32.748Z,12.33
2023-05-21T02:21:59.190Z,12.32
2023-05-21T02:24:25.554Z,12.32
2023-05-21T02:26:51.932Z,12.30
2023-05-21T02:29:18.800Z,12.23
2023-05-21T02:31:45.185Z,12.26
2023-05-21T02:34:11.609Z,12.23
2023-05-21T02:36:38.043Z,12.13
2023-05-21T02:39:04.418Z,12.02
2023-05-21T02:41:30.782Z,12.03
2023-05-21T02:43:57.141Z,11.92
2023-05-21T02:46:23.556Z,12.02
2023-05-21T02:48:49.985Z,12.10
2023-05-21T02:51:16.404Z,12.17
2023-05-21T02:53:42.821Z,12.07
2023-05-21T02:56:09.197Z,12.01
2023-05-21T02:58:35.557Z,12.08
2023-05-21T03:01:01.951Z,12.16
2023-05-21T03:03:28.556Z,12.19
2023-05-21T03:05:55.035Z,12.15
2023-05-21T03:08:21.420Z,12.13
2023-05-21T03:10:47.779Z,12.14
2023-05-21T03:13:14.183Z,12.10
2023-05-21T03:15:40.587Z,12.10
2023-05-21T03:18:07.017Z,12.07
2023-05-21T03:20:33.426Z,12.05
2023-05-21T03:22:59.824Z,12.07
2023-05-21T03:25:26.197Z,11.83
2023-05-21T03:27:52.571Z,11.79
2023-05-21T03:30:18.962Z,11.71
2023-05-21T03:32:45.375Z,11.72
2023-05-21T03:35:11.792Z,11.79
2023-05-21T03:37:38.203Z,11.76
2023-05-21T03:40:04.577Z,11.73
2023-05-21T03:42:30.995Z,11.63
2023-05-21T03:44:57.363Z,11.56
2023-05-21T03:47:23.778Z,11.55
2023-05-21T03:49:50.181Z,11.51
2023-05-21T03:52:16.551Z,11.50
2023-05-21T03:54:42.908Z,11.50
2023-05-21T03:57:09.293Z,11.47
2023-05-21T03:59:35.672Z,11.46
2023-05-21T04:02:02.048Z,11.50
2023-05-21T04:04:28.456Z,11.49
2023-05-21T04:06:54.818Z,11.45
2023-05-21T04:09:21.189Z,11.51
2023-05-21T04:11:47.571Z,11.56
2023-05-21T04:14:13.957Z,11.56
2023-05-21T04:16:40.365Z,11.60
2023-05-21T04:19:06.754Z,11.63
2023-05-21T04:21:33.148Z,11.62
2023-05-21T04:23:59.668Z,11.72
2023-05-21T04:26:26.083Z,11.83
2023-05-21T04:28:52.437Z,11.92
2023-05-21T04:31:18.886Z,11.99
2023-05-21T04:33:45.311Z,11.99
2023-05-21T04:36:11.703Z,11.89
2023-05-21T04:38:38.085Z,11.89
2023-05-21T04:41:04.479Z,11.88
2023-05-21T04:43:30.922Z,11.81
2023-05-21T04:45:57.354Z,11.80
2023-05-21T04:48:23.732Z,11.83
2023-05-21T04:50:50.107Z,11.84
2023-05-21T04:53:16.527Z,11.87
2023-05-21T04:55:42.907Z,11.92
2023-05-21T04:58:09.271Z,11.99
2023-05-21T05:00:35.669Z,12.06
2023-05-21T05:03:02.121Z,12.10
2023-05-21T05:05:28.542Z,12.21
2023-05-21T05:07:54.940Z,12.26
2023-05-21T05:10:21.295Z,12.33
2023-05-21T05:12:47.665Z,12.40
2023-05-21T05:15:14.049Z,12.47
2023-05-21T05:17:40.463Z,12.54
2023-05-21T05:20:06.906Z,12.65
2023-05-21T05:22:33.277Z,12.71
2023-05-21T05:24:59.674Z,12.75
2023-05-21T05:27:26.059Z,12.74
2023-05-21T05:29:52.420Z,12.73
2023-05-21T05:32:18.842Z,12.72
2023-05-21T05:34:45.230Z,12.74
2023-05-21T05:37:11.596Z,12.75
2023-05-21T05:39:37.970Z,12.80
2023-05-21T05:42:04.347Z,12.77
2023-05-21T05:44:30.709Z,12.81
2023-05-21T05:46:57.061Z,12.88
2023-05-21T05:49:23.425Z,12.93
2023-05-21T05:51:49.777Z,13.01
2023-05-21T05:54:16.145Z,13.07
2023-05-21T05:56:42.519Z,13.13
2023-05-21T05:59:08.916Z,13.18
2023-05-21T06:01:35.299Z,13.23
2023-05-21T06:04:01.665Z,13.28
2023-05-21T06:06:28.070Z,13.30
2023-05-21T06:08:54.437Z,13.26
2023-05-21T06:11:20.852Z,13.33
2023-05-21T06:13:47.267Z,13.23
2023-05-21T06:16:13.736Z,13.32
2023-05-21T06:18:40.145Z,13.37
2023-05-21T06:21:09.814Z,13.41
2023-05-21T06:23:36.246Z,13.45
2023-05-21T06:26:02.619Z,13.51
2023-05-21T06:28:28.991Z,13.48
2023-05-21T06:30:55.380Z,13.63
2023-05-21T06:33:21.804Z,13.63
2023-05-21T06:35:48.223Z,13.66
2023-05-21T06:38:14.607Z,13.70
2023-05-21T06:40:42.167Z,13.79
2023-05-21T06:43:08.532Z,13.84
2023-05-21T06:45:35.073Z,13.85
2023-05-21T06:48:01.715Z,13.91
2023-05-21T06:50:28.172Z,13.91
2023-05-21T06:52:54.574Z,13.86
2023-05-21T06:55:20.943Z,13.89
2023-05-21T06:57:47.332Z,13.94
2023-05-21T07:00:13.694Z,13.98
2023-05-21T07:02:40.127Z,14.05
2023-05-21T07:05:06.541Z,14.01
2023-05-21T07:07:32.902Z,14.07
2023-05-21T07:09:59.264Z,14.11
2023-05-21T07:12:25.642Z,14.17
2023-05-21T07:14:52.012Z,14.20
2023-05-21T07:17:18.366Z,14.33
2023-05-21T07:19:44.744Z,14.35
2023-05-21T07:22:11.110Z,14.45
2023-05-21T07:24:37.469Z,14.50
2023-05-21T07:27:11.338Z,14.69
2023-05-21T07:29:44.478Z,14.63
2023-05-21T07:32:10.856Z,14.73
2023-05-21T07:34:37.243Z,14.75
2023-05-21T07:37:03.604Z,14.81
2023-05-21T07:39:29.950Z,14.92
2023-05-21T07:41:56.315Z,15.03
2023-05-21T07:44:22.663Z,15.12
2023-05-21T07:46:49.044Z,15.08
2023-05-21T07:49:15.446Z,15.00
2023-05-21T07:51:41.833Z,15.11
2023-05-21T07:54:08.226Z,15.22
2023-05-21T07:56:34.600Z,15.28
2023-05-21T07:59:00.958Z,15.33
2023-05-21T08:01:27.333Z,15.42
2023-05-21T08:03:53.840Z,15.45
2023-05-21T08:06:20.372Z,15.26
2023-05-21T08:08:46.758Z,15.31
2023-05-21T08:11:14.302Z,15.32
2023-05-21T08:13:40.677Z,15.45
2023-05-21T08:16:07.094Z,15.55
2023-05-21T08:18:33.509Z,15.50
2023-05-21T08:20:59.885Z,15.69
2023-05-21T08:23:26.269Z,15.94
2023-05-21T08:25:52.669Z,16.06
2023-05-21T08:28:19.084Z,16.23
2023-05-21T08:30:45.468Z,16.46
2023-05-21T08:33:11.890Z,16.50
2023-05-21T08:35:38.567Z,16.64
2023-05-21T08:38:05.196Z,16.79
2023-05-21T08:40:31.578Z,16.83
2023-05-21T08:42:57.948Z,17.00
2023-05-21T08:45:24.354Z,16.93
2023-05-21T08:47:50.833Z,17.13
2023-05-21T08:50:17.216Z,17.21
2023-05-21T08:52:43.633Z,17.27
2023-05-21T08:55:10.025Z,17.38
2023-05-21T08:57:36.404Z,17.43
2023-05-21T09:00:02.814Z,17.66
2023-05-21T09:02:29.210Z,17.69
2023-05-21T09:04:55.566Z,17.85
2023-05-21T09:07:21.932Z,17.91
2023-05-21T09:09:48.310Z,17.99
2023-05-21T09:12:14.677Z,18.05
2023-05-21T09:14:41.069Z,18.16
2023-05-21T09:17:07.592Z,18.24
2023-05-21T09:19:34.094Z,18.34
2023-05-21T09:22:00.478Z,18.31
2023-05-21T09:24:26.871Z,18.33
2023-05-21T09:26:53.236Z,18.37
2023-05-21T09:29:19.594Z,18.40
2023-05-21T09:31:46.059Z,18.52
2023-05-21T09:34:12.471Z,18.65
2023-05-21T09:36:38.868Z,18.66
2023-05-21T09:39:05.243Z,18.76
2023-05-21T09:41:31.638Z,18.78
2023-05-21T09:43:58.015Z,18.90
2023-05-21T09:46:24.421Z,18.90
2023-05-21T09:48:50.855Z,19.09
2023-05-21T09:51:17.226Z,19.16
2023-05-21T09:53:43.615Z,19.23
2023-05-21T09:56:10.133Z,19.26
2023-05-21T09:58:36.531Z,19.35
2023-05-21T10:01:02.917Z,19.45
2023-05-21T10:03:29.329Z,19.53
2023-05-21T10:05:55.721Z,19.58
2023-05-21T10:08:22.114Z,19.65
2023-05-21T10:10:48.504Z,19.71
2023-05-21T10:13:14.906Z,19.87
2023-05-21T10:15:41.273Z,19.93
2023-05-21T10:18:07.672Z,20.04
2023-05-21T10:20:34.157Z,20.07
2023-05-21T10:23:00.663Z,20.13
2023-05-21T10:25:27.035Z,20.28
2023-05-21T10:27:53.405Z,20.47
2023-05-21T10:30:19.795Z,20.38
2023-05-21T10:32:46.328Z,20.47
2023-05-21T10:35:12.820Z,20.56
2023-05-21T10:37:39.182Z,20.57
2023-05-21T10:40:05.566Z,20.68
2023-05-21T10:42:31.968Z,20.59
2023-05-21T10:44:58.385Z,20.71
2023-05-21T10:47:24.737Z,20.72
2023-05-21T10:49:51.125Z,20.92
2023-05-21T10:52:17.532Z,20.97
2023-05-21T10:54:43.901Z,21.08
2023-05-21T10:57:10.276Z,21.07
2023-05-21T10:59:36.643Z,21.08
2023-05-21T11:02:03.052Z,21.11
2023-05-21T11:04:29.441Z,21.12
2023-05-21T11:06:55.813Z,21.15
2023-05-21T11:09:22.193Z,21.20
2023-05-21T11:11:48.669Z,21.29
2023-05-21T11:14:15.132Z,21.37
2023-05-21T11:16:41.526Z,21.41
2023-05-21T11:19:07.987Z,21.28
2023-05-21T11:21:34.430Z,21.12
2023-05-21T11:24:00.811Z,20.93
2023-05-21T11:26:27.213Z,20.97
2023-05-21T11:28:53.585Z,20.99
2023-05-21T11:31:19.952Z,21.02
2023-05-21T11:33:46.318Z,21.15
2023-05-21T11:36:12.688Z,21.37
2023-05-21T11:38:39.054Z,21.59
2023-05-21T11:41:05.456Z,21.64
2023-05-21T11:43:31.810Z,21.70
2023-05-21T11:45:58.220Z,21.79
2023-05-21T11:48:27.286Z,21.92
2023-05-21T11:50:54.411Z,21.95
2023-05-21T11:53:20.750Z,21.94
2023-05-21T11:55:47.111Z,21.96
2023-05-21T11:58:13.481Z,22.02
2023-05-21T12:00:39.851Z,22.05
2023-05-21T12:03:06.367Z,22.20
2023-05-21T12:05:32.843Z,22.14
2023-05-21T12:07:59.209Z,22.24
2023-05-21T12:10:25.567Z,22.32
2023-05-21T12:12:56.468Z,22.44
2023-05-21T12:15:23.533Z,22.47
2023-05-21T12:17:50.020Z,22.52
2023-05-21T12:20:16.474Z,22.56
2023-05-21T12:22:42.910Z,22.61
2023-05-21T12:25:09.278Z,22.57
2023-05-21T12:27:35.653Z,22.68
2023-05-21T12:30:01.993Z,22.73
2023-05-21T12:32:28.388Z,22.78
2023-05-21T12:34:54.896Z,22.89
2023-05-21T12:37:21.305Z,22.88
2023-05-21T12:39:47.673Z,22.89
2023-05-21T12:42:14.043Z,23.09
2023-05-21T12:44:40.390Z,23.07
2023-05-21T12:47:06.773Z,23.02
2023-05-21T12:49:33.119Z,23.23
2023-05-21T12:51:59.464Z,23.44
2023-05-21T12:54:25.972Z,23.66
2023-05-21T12:56:52.352Z,23.80
2023-05-21T12:59:18.739Z,23.81
2023-05-21T13:01:45.136Z,23.86
2023-05-21T13:04:11.543Z,23.86
2023-05-21T13:06:38.022Z,23.82
2023-05-21T13:09:04.390Z,23.71
2023-05-21T13:11:30.764Z,23.88
2023-05-21T13:13:57.113Z,24.06
2023-05-21T13:16:23.647Z,24.21
2023-05-21T13:18:50.146Z,24.27
2023-05-21T13:21:16.521Z,24.01
2023-05-21T13:23:42.875Z,24.03
2023-05-21T13:26:09.251Z,24.13
2023-05-21T13:28:35.631Z,24.24
2023-05-21T13:31:02.003Z,24.35
2023-05-21T13:33:28.628Z,24.52
2023-05-21T13:35:55.143Z,24.63
2023-05-21T13:38:21.499Z,24.46
2023-05-21T13:40:47.856Z,24.58
2023-05-21T13:43:14.228Z,24.69
2023-05-21T13:45:40.573Z,24.74
2023-05-21T13:48:06.980Z,24.75
2023-05-21T13:50:33.389Z,24.93
2023-05-21T13:52:59.758Z,25.19
2023-05-21T13:55:29.198Z,25.41
2023-05-21T13:57:55.579Z,25.55
2023-05-21T14:00:21.954Z,25.60
2023-05-21T14:02:48.413Z,25.66
2023-05-21T14:05:14.937Z,25.48
2023-05-21T14:07:41.298Z,25.06
2023-05-21T14:10:07.659Z,24.77
2023-05-21T14:12:34.027Z,24.54
2023-05-21T14:15:00.386Z,24.36
2023-05-21T14:17:26.852Z,24.17
2023-05-21T14:19:53.231Z,24.11
2023-05-21T14:22:19.601Z,24.00
2023-05-21T14:24:45.947Z,23.99
2023-05-21T14:27:14.574Z,24.07
2023-05-21T14:29:41.673Z,24.07
2023-05-21T14:32:08.077Z,24.18
2023-05-21T14:34:34.453Z,24.39
2023-05-21T14:37:00.806Z,24.33
2023-05-21T14:39:27.190Z,24.42
2023-05-21T14:41:53.536Z,24.34
2023-05-21T14:44:19.879Z,24.57
2023-05-21T14:46:46.236Z,24.56
2023-05-21T14:49:12.591Z,24.90
2023-05-21T14:51:38.959Z,25.18
2023-05-21T14:54:05.313Z,25.32
2023-05-21T14:56:31.695Z,25.26
2023-05-21T14:58:58.057Z,25.21
2023-05-21T15:01:24.445Z,25.29
2023-05-21T15:03:51.076Z,25.40
2023-05-21T15:06:17.775Z,25.51
2023-05-21T15:08:44.151Z,25.55
2023-05-21T15:11:10.518Z,25.46
2023-05-21T15:13:36.875Z,25.50
2023-05-21T15:16:03.282Z,25.44
2023-05-21T15:18:29.736Z,25.42
2023-05-21T15:20:56.122Z,25.18
2023-05-21T15:23:22.477Z,25.08
2023-05-21T15:25:53.980Z,25.34
2023-05-21T15:28:20.325Z,25.53
2023-05-21T15:30:46.670Z,25.53
2023-05-21T15:33:13.070Z,25.30
2023-05-21T15:35:39.892Z,25.30
2023-05-21T15:38:06.452Z,25.24
2023-05-21T15:40:32.856Z,25.37
2023-05-21T15:42:59.269Z,25.37
2023-05-21T15:45:25.666Z,25.56
2023-05-21T15:47:52.124Z,25.53
2023-05-21T15:50:18.498Z,25.51
2023-05-21T15:52:44.893Z,25.37
2023-05-21T15:55:11.246Z,25.43
2023-05-21T15:57:37.617Z,25.52
2023-05-21T16:00:03.998Z,25.37
2023-05-21T16:02:30.387Z,25.22
2023-05-21T16:04:56.771Z,25.12
2023-05-21T16:07:23.128Z,25.03
2023-05-21T16:09:49.469Z,25.06
2023-05-21T16:12:15.839Z,25.04
2023-05-21T16:14:42.216Z,24.99
2023-05-21T16:17:08.636Z,25.08
2023-05-21T16:19:35.119Z,25.28
2023-05-21T16:22:01.577Z,25.16
2023-05-21T16:24:27.927Z,24.90
2023-05-21T16:26:54.269Z,24.76
2023-05-21T16:29:22.164Z,24.61
2023-05-21T16:31:48.680Z,24.34
2023-05-21T16:34:15.068Z,24.31
2023-05-21T16:36:41.470Z,24.39
2023-05-21T16:39:07.852Z,24.53
2023-05-21T16:41:34.232Z,24.31
2023-05-21T16:44:00.618Z,24.39
2023-05-21T16:46:27.096Z,24.53
2023-05-21T16:48:53.444Z,24.72
2023-05-21T16:51:19.812Z,24.69
2023-05-21T16:53:46.154Z,24.40
2023-05-21T16:56:12.506Z,24.19
2023-05-21T16:58:38.874Z,24.06
2023-05-21T17:01:05.256Z,23.91
2023-05-21T17:03:31.809Z,23.61
2023-05-21T17:05:58.273Z,23.47
2023-05-21T17:08:24.670Z,23.41
2023-05-21T17:10:51.025Z,23.41
2023-05-21T17:13:22.020Z,23.53
2023-05-21T17:15:48.839Z,23.65
2023-05-21T17:18:15.236Z,23.78
2023-05-21T17:20:41.754Z,23.85
2023-05-21T17:23:08.156Z,23.66
2023-05-21T17:25:34.824Z,23.67
2023-05-21T17:28:01.375Z,23.62
2023-05-21T17:30:27.744Z,23.74
2023-05-21T17:32:54.117Z,23.63
2023-05-21T17:35:20.489Z,23.56
2023-05-21T17:37:46.900Z,23.52
2023-05-21T17:40:13.285Z,23.54
2023-05-21T17:42:39.669Z,23.68
2023-05-21T17:45:06.066Z,23.80
2023-05-21T17:47:32.446Z,23.80
2023-05-21T17:49:58.851Z,23.63
2023-05-21T17:52:25.197Z,23.44
2023-05-21T17:54:51.566Z,23.43
2023-05-21T17:57:17.958Z,23.42
2023-05-21T17:59:44.329Z,23.19
2023-05-21T18:02:10.709Z,23.27
2023-05-21T18:04:37.112Z,23.12
2023-05-21T18:07:03.512Z,23.14
2023-05-21T18:09:29.889Z,23.12
2023-05-21T18:11:56.268Z,23.05
2023-05-21T18:14:22.635Z,23.12
2023-05-21T18:16:49.049Z,23.15
2023-05-21T18:19:15.486Z,22.96
2023-05-21T18:21:41.902Z,22.83
2023-05-21T18:24:08.276Z,22.79
2023-05-21T18:26:34.657Z,22.67
2023-05-21T18:29:01.059Z,22.57
2023-05-21T18:31:27.545Z,22.49
2023-05-21T18:33:53.949Z,22.44
2023-05-21T18:36:20.314Z,22.23
2023-05-21T18:38:46.657Z,22.12
2023-05-21T18:41:13.044Z,22.02
2023-05-21T18:43:39.412Z,21.90
2023-05-21T18:46:05.837Z,21.82
2023-05-21T18:48:32.241Z,21.81
2023-05-21T18:50:58.597Z,21.72
2023-05-21T18:53:24.974Z,21.55
2023-05-21T18:55:51.332Z,21.47
2023-05-21T18:58:17.729Z,21.41
2023-05-21T19:00:44.096Z,21.37
2023-05-21T19:03:10.505Z,21.36
2023-05-21T19:05:36.962Z,21.49
2023-05-21T19:08:03.366Z,21.54
2023-05-21T19:10:29.717Z,21.52
2023-05-21T19:12:56.069Z,21.43
2023-05-21T19:15:22.428Z,21.37
2023-05-21T19:17:48.895Z,21.36
2023-05-21T19:20:15.331Z,21.23
2023-05-21T19:22:41.709Z,21.08
2023-05-21T19:25:08.063Z,20.98
2023-05-21T19:27:34.501Z,20.84
2023-05-21T19:30:00.891Z,20.74
2023-05-21T19:32:27.273Z,20.58
2023-05-21T19:34:53.635Z,20.37
2023-05-21T19:37:20.079Z,20.15
2023-05-21T19:39:46.462Z,20.06
2023-05-21T19:42:12.858Z,19.96
2023-05-21T19:44:39.233Z,19.88
2023-05-21T19:47:05.605Z,19.94
2023-05-21T19:49:31.973Z,19.84
2023-05-21T19:51:58.359Z,19.77
2023-05-21T19:54:24.710Z,19.77
2023-05-21T19:56:51.088Z,19.66
2023-05-21T19:59:17.487Z,19.76
2023-05-21T20:01:43.929Z,19.79
2023-05-21T20:04:10.416Z,19.92
2023-05-21T20:06:36.800Z,19.78
2023-05-21T20:09:03.184Z,19.63
2023-05-21T20:11:29.584Z,19.67
2023-05-21T20:13:55.954Z,19.47
2023-05-21T20:16:22.348Z,19.48
2023-05-21T20:18:48.769Z,19.38
2023-05-21T20:21:15.226Z,19.41
2023-05-21T20:23:41.627Z,19.32
2023-05-21T20:26:07.986Z,19.27
2023-05-21T20:28:34.346Z,19.18
2023-05-21T20:31:00.724Z,18.92
2023-05-21T20:33:27.125Z,18.80
2023-05-21T20:35:53.476Z,18.73
2023-05-21T20:38:19.829Z,18.74
2023-05-21T20:40:46.205Z,18.71
2023-05-21T20:43:12.555Z,18.81
2023-05-21T20:45:38.914Z,18.76
2023-05-21T20:48:05.311Z,18.63
2023-05-21T20:50:31.758Z,18.66
2023-05-21T20:52:58.144Z,18.73
2023-05-21T20:55:24.560Z,18.77
2023-05-21T20:57:50.962Z,18.69
2023-05-21T21:00:17.316Z,18.68
2023-05-21T21:02:43.761Z,18.62
2023-05-21T21:05:10.693Z,18.67
2023-05-21T21:07:37.134Z,18.64
2023-05-21T21:10:03.493Z,18.58
2023-05-21T21:12:29.868Z,18.65
2023-05-21T21:14:56.230Z,18.56
2023-05-21T21:17:22.604Z,18.50
2023-05-21T21:19:48.999Z,18.49
2023-05-21T21:22:15.364Z,18.45
2023-05-21T21:24:41.741Z,18.39
2023-05-21T21:27:08.132Z,18.34
2023-05-21T21:29:34.500Z,18.36
2023-05-21T21:32:00.868Z,18.33
2023-05-21T21:34:27.248Z,18.32
2023-05-21T21:36:53.617Z,18.36
2023-05-21T21:39:19.976Z,18.35
2023-05-21T21:41:46.342Z,18.28
2023-05-21T21:44:12.705Z,18.25
2023-05-21T21:46:39.104Z,18.21
2023-05-21T21:49:05.466Z,18.13
2023-05-21T21:51:31.831Z,18.07
2023-05-21T21:53:58.194Z,18.06
2023-05-21T21:56:24.546Z,17.98
2023-05-21T21:58:50.928Z,17.96
2023-05-21T22:01:17.625Z,18.00
2023-05-21T22:03:44.024Z,17.90
2023-05-21T22:06:10.385Z,17.88
2023-05-21T22:08:36.761Z,17.82
2023-05-21T22:11:03.144Z,17.83
2023-05-21T22:13:30.086Z,17.75
2023-05-21T22:15:56.540Z,17.69
2023-05-21T22:18:36.002Z,17.68
2023-05-21T22:21:06.391Z,17.66
2023-05-21T22:23:32.749Z,17.62
2023-05-21T22:25:59.096Z,17.56
2023-05-21T22:28:25.461Z,17.51
2023-05-21T22:30:51.834Z,17.46
2023-05-21T22:33:18.244Z,17.45
2023-05-21T22:35:44.623Z,17.47
2023-05-21T22:38:10.973Z,17.45
2023-05-21T22:40:37.607Z,17.37
2023-05-21T22:43:04.129Z,17.30
2023-05-21T22:45:30.519Z,17.21
2023-05-21T22:47:56.918Z,17.19
2023-05-21T22:50:23.303Z,17.04
2023-05-21T22:52:49.681Z,16.99
2023-05-21T22:55:16.063Z,16.97
2023-05-21T22:57:42.426Z,17.01
2023-05-21T23:00:08.800Z,17.06
2023-05-21T23:02:35.166Z,17.04
2023-05-21T23:05:01.722Z,16.98
2023-05-21T23:07:28.134Z,17.03
2023-05-21T23:09:54.505Z,16.96
2023-05-21T23:12:20.850Z,16.93
2023-05-21T23:14:47.229Z,16.93
2023-05-21T23:17:13.593Z,16.93
2023-05-21T23:19:39.942Z,16.99
2023-05-21T23:22:06.333Z,16.99
2023-05-21T23:24:32.699Z,17.03
2023-05-21T23:26:59.050Z,17.05
2023-05-21T23:29:25.403Z,17.00
2023-05-21T23:31:51.777Z,16.97
2023-05-21T23:34:18.199Z,16.93
2023-05-21T23:36:44.598Z,16.91
2023-05-21T23:39:10.960Z,16.91
2023-05-21T23:41:37.334Z,16.84
2023-05-21T23:44:03.795Z,16.77
2023-05-21T23:46:30.184Z,16.78
2023-05-21T23:48:59.427Z,16.73
2023-05-21T23:51:25.806Z,16.75
2023-05-21T23:53:52.163Z,16.74
2023-05-21T23:56:18.549Z,16.83
2023-05-21T23:58:44.922Z,16.82
